Time;durP1;ratioP1;P1;durP2;ratioP2;P2;SDS_P1;SDS_P2;PMS_P1;PMS_P2;Temp;Humidity;BMP_temperature;BMP_pressure;BME280_temperature;BME280_humidity;BME280_pressure;Samples;Min_cycle;Max_cycle;Signal;HPM_P1;HPM_P2
2023/06/03 00:00:13;;;;;;;0.00;0.00;;;;;;;15.63;63.15;102288.91;5109708;28;20048;-78
2023/06/03 00:02:40;;;;;;;0.05;0.05;;;;;;;15.59;63.68;102296.97;5109205;28;20095;-78
2023/06/03 00:05:07;;;;;;;0.10;0.10;;;;;;;15.56;63.56;102303.25;5105236;28;20028;-78
2023/06/03 00:07:33;;;;;;;0.20;0.20;;;;;;;15.55;63.24;102305.97;5106381;28;20050;-77
2023/06/03 00:10:00;;;;;;;0.35;0.35;;;;;;;15.52;62.92;102309.56;5109382;28;20035;-79
2023/06/03 00:12:26;;;;;;;0.03;0.03;;;;;;;15.50;63.02;102309.63;5108869;28;20028;-78
2023/06/03 00:14:52;;;;;;;0.00;0.00;;;;;;;15.46;63.32;102302.53;5109140;28;20032;-79
2023/06/03 00:17:21;;;;;;;0.00;0.00;;;;;;;15.45;63.55;102307.91;5108948;28;20179;-77
2023/06/03 00:19:48;;;;;;;0.00;0.00;;;;;;;15.41;63.11;102301.75;5106249;28;20028;-79
2023/06/03 00:22:14;;;;;;;0.00;0.00;;;;;;;15.40;62.99;102301.78;5111876;28;20028;-80
2023/06/03 00:24:40;;;;;;;0.10;0.10;;;;;;;15.37;62.88;102308.91;5114105;28;20126;-80
2023/06/03 00:27:06;;;;;;;0.10;0.10;;;;;;;15.33;63.13;102307.22;5107541;28;20032;-77
2023/06/03 00:29:32;;;;;;;1.17;1.17;;;;;;;15.31;63.62;102305.47;5106290;28;20020;-77
2023/06/03 00:31:59;;;;;;;0.00;0.00;;;;;;;15.30;63.64;102309.06;5098916;28;20043;-76
2023/06/03 00:34:25;;;;;;;0.05;0.05;;;;;;;15.27;63.07;102301.09;5099701;28;20053;-75
2023/06/03 00:36:51;;;;;;;0.00;0.00;;;;;;;15.26;62.88;102310.03;5100210;28;20036;-78
2023/06/03 00:39:17;;;;;;;0.10;0.10;;;;;;;15.21;63.66;102302.06;5100013;28;20055;-75
2023/06/03 00:41:43;;;;;;;0.10;0.10;;;;;;;15.19;63.27;102298.56;5103103;28;20107;-76
2023/06/03 00:44:09;;;;;;;0.05;0.05;;;;;;;15.17;63.38;102295.91;5101822;28;20431;-76
2023/06/03 00:46:35;;;;;;;0.00;0.00;;;;;;;15.14;63.30;102300.41;5095575;28;20028;-76
2023/06/03 00:49:02;;;;;;;0.10;0.10;;;;;;;15.12;63.04;102302.22;5096586;28;20032;-77
2023/06/03 00:51:31;;;;;;;0.20;0.20;;;;;;;15.10;63.09;102296.03;5089049;28;20047;-77
2023/06/03 00:53:59;;;;;;;0.20;0.20;;;;;;;15.07;63.24;102299.63;5097538;28;20028;-77
2023/06/03 00:56:26;;;;;;;0.65;0.50;;;;;;;15.04;63.38;102294.31;5093999;28;20035;-77
2023/06/03 00:58:52;;;;;;;0.10;0.10;;;;;;;15.03;63.19;102308.59;5092386;28;20435;-77
2023/06/03 01:01:19;;;;;;;0.10;0.10;;;;;;;15.00;63.82;102297.94;5093718;28;20490;-77
2023/06/03 01:03:47;;;;;;;0.00;0.00;;;;;;;14.97;63.34;102303.34;5096462;28;20024;-77
2023/06/03 01:06:24;;;;;;;0.00;0.00;;;;;;;14.97;63.17;102303.34;5098930;28;20024;-77
2023/06/03 01:12:12;;;;;;;0.00;0.00;;;;;;;14.92;63.32;102297.22;5108803;27;20344;-81
2023/06/03 01:15:00;;;;;;;0.00;0.00;;;;;;;14.92;63.53;102299.88;5100910;28;20042;-81
2023/06/03 01:17:31;;;;;;;0.00;0.00;;;;;;;14.83;63.35;102304.44;5106264;28;20032;-81
2023/06/03 01:19:59;;;;;;;0.10;0.10;;;;;;;14.79;63.19;102300.06;5111912;28;20170;-79
2023/06/03 01:22:26;;;;;;;0.08;0.08;;;;;;;14.77;63.29;102291.19;5105566;28;20096;-81
2023/06/03 01:25:09;;;;;;;0.10;0.10;;;;;;;14.80;63.10;102296.44;5106043;28;20047;-81
2023/06/03 01:27:37;;;;;;;0.22;0.22;;;;;;;14.72;63.18;102293.91;5095941;28;20204;-81
2023/06/03 01:30:06;;;;;;;0.08;0.08;;;;;;;14.72;62.76;102298.38;5103717;28;20089;-80
2023/06/03 01:32:33;;;;;;;0.35;0.35;;;;;;;14.68;63.28;102297.53;5111464;28;20038;-79
2023/06/03 01:34:59;;;;;;;0.10;0.10;;;;;;;14.66;63.02;102295.78;5127724;28;20023;-77
2023/06/03 01:37:27;;;;;;;0.00;0.00;;;;;;;14.64;63.12;102294.88;5113284;28;20032;-80
2023/06/03 01:39:54;;;;;;;0.15;0.10;;;;;;;14.61;63.21;102303.81;5118170;28;20012;-80
2023/06/03 01:42:20;;;;;;;0.00;0.00;;;;;;;14.58;63.47;102301.19;5104391;28;20119;-81
2023/06/03 01:44:47;;;;;;;0.00;0.00;;;;;;;14.56;63.15;102308.31;5104704;28;20063;-81
2023/06/03 01:47:14;;;;;;;0.10;0.10;;;;;;;14.53;63.25;102308.38;5107343;28;20127;-80
2023/06/03 01:49:41;;;;;;;0.10;0.10;;;;;;;14.52;63.07;102315.47;5097838;28;20031;-78
2023/06/03 01:52:07;;;;;;;0.10;0.10;;;;;;;14.48;63.48;102319.09;5095994;28;20028;-80
2023/06/03 01:54:33;;;;;;;0.10;0.10;;;;;;;14.48;63.59;102315.53;5098200;28;20110;-80
2023/06/03 01:57:00;;;;;;;0.10;0.10;;;;;;;14.46;63.28;102320.91;5097701;28;20349;-80
2023/06/03 01:59:26;;;;;;;0.10;0.10;;;;;;;14.42;63.63;102321.84;5097477;28;20510;-79
2023/06/03 02:01:54;;;;;;;0.10;0.10;;;;;;;14.38;63.72;102315.66;5102919;28;20398;-80
2023/06/03 02:04:20;;;;;;;0.00;0.00;;;;;;;14.37;63.48;102310.34;5097047;28;20032;-79
2023/06/03 02:06:52;;;;;;;0.00;0.00;;;;;;;14.37;63.28;102313.03;5098809;28;20317;-79
2023/06/03 02:09:21;;;;;;;0.10;0.10;;;;;;;14.33;63.30;102308.59;5099079;28;20532;-80
2023/06/03 02:11:48;;;;;;;0.00;0.00;;;;;;;14.31;63.25;102310.44;5097180;28;20056;-79
2023/06/03 02:14:15;;;;;;;0.00;0.00;;;;;;;14.30;62.87;102306.88;5097650;28;20074;-78
2023/06/03 02:16:41;;;;;;;0.08;0.08;;;;;;;14.26;63.42;102299.81;5100591;28;20111;-80
2023/06/03 02:19:14;;;;;;;0.08;0.08;;;;;;;14.27;62.95;102295.34;5098039;28;20024;-80
2023/06/03 02:21:41;;;;;;;0.10;0.10;;;;;;;14.22;63.27;102298.97;5095912;28;20028;-80
2023/06/03 02:24:08;;;;;;;0.00;0.00;;;;;;;14.21;62.82;102294.53;5082898;28;20032;-80
2023/06/03 02:26:35;;;;;;;0.10;0.10;;;;;;;14.19;63.20;102296.34;5082953;28;20744;-80
2023/06/03 02:29:02;;;;;;;0.10;0.10;;;;;;;14.17;63.23;102292.81;5086546;28;20486;-81
2023/06/03 02:31:29;;;;;;;0.10;0.10;;;;;;;14.14;63.20;102290.16;5093970;28;20024;-81
2023/06/03 02:33:55;;;;;;;0.10;0.10;;;;;;;14.11;63.41;102295.53;5084957;28;20073;-81
2023/06/03 02:36:21;;;;;;;0.17;0.17;;;;;;;14.09;63.08;102286.69;5087556;28;20092;-80
2023/06/03 02:38:48;;;;;;;0.00;0.00;;;;;;;14.06;63.52;102287.59;5082175;28;20038;-79
2023/06/03 02:41:15;;;;;;;0.10;0.10;;;;;;;14.04;63.38;102283.19;5085253;28;20051;-80
2023/06/03 02:43:41;;;;;;;0.10;0.10;;;;;;;14.02;63.36;102285.00;5087595;28;20157;-81
2023/06/03 02:46:07;;;;;;;0.10;0.10;;;;;;;13.98;63.55;102288.59;5082082;28;20479;-80
2023/06/03 02:48:34;;;;;;;0.10;0.10;;;;;;;13.98;63.67;102293.91;5082557;28;20076;-80
2023/06/03 02:51:00;;;;;;;0.10;0.10;;;;;;;13.96;63.44;102291.28;5077556;28;20028;-80
2023/06/03 02:53:27;;;;;;;0.00;0.00;;;;;;;13.94;63.22;102294.84;5082086;28;20040;-81
2023/06/03 02:55:53;;;;;;;0.00;0.00;;;;;;;13.91;63.05;102288.66;5090439;28;20028;-81
2023/06/03 02:58:19;;;;;;;0.10;0.10;;;;;;;13.89;63.19;102297.56;5089936;28;20029;-81
2023/06/03 03:00:45;;;;;;;0.00;0.00;;;;;;;13.87;63.44;102297.59;5089639;28;20330;-80
2023/06/03 03:03:12;;;;;;;0.00;0.00;;;;;;;13.85;63.02;102299.38;5085275;28;20065;-81
2023/06/03 03:05:40;;;;;;;0.00;0.00;;;;;;;13.84;63.31;102297.59;5089549;28;20502;-81
2023/06/03 03:08:06;;;;;;;0.00;0.00;;;;;;;13.81;63.16;102305.63;5079921;28;20032;-80
2023/06/03 03:10:32;;;;;;;0.10;0.10;;;;;;;13.78;63.42;102297.66;5076507;28;20514;-80
2023/06/03 03:12:58;;;;;;;0.10;0.10;;;;;;;13.77;63.02;102295.94;5076988;28;20085;-80
2023/06/03 03:15:24;;;;;;;0.10;0.10;;;;;;;13.74;63.84;102296.84;5075776;28;20036;-79
2023/06/03 03:17:50;;;;;;;0.30;0.30;;;;;;;13.71;63.22;102299.50;5076145;28;20032;-81
2023/06/03 03:20:17;;;;;;;0.45;0.45;;;;;;;13.67;63.67;102295.13;5076481;28;20021;-79
2023/06/03 03:22:45;;;;;;;0.05;0.05;;;;;;;13.66;63.42;102297.81;5076488;28;20039;-81
2023/06/03 03:25:11;;;;;;;0.10;0.10;;;;;;;13.65;63.57;102301.38;5077469;28;20039;-80
2023/06/03 03:27:37;;;;;;;1.10;1.10;;;;;;;13.64;63.23;102299.59;5078272;28;20032;-81
2023/06/03 03:30:05;;;;;;;0.00;0.00;;;;;;;13.63;63.18;102295.16;5076345;28;20440;-78
2023/06/03 03:32:32;;;;;;;0.10;0.10;;;;;;;13.61;63.22;102297.84;5075182;28;20024;-79
2023/06/03 03:35:20;;;;;;;0.00;0.00;;;;;;;13.66;63.36;102303.13;5073551;28;20039;-80
2023/06/03 03:37:46;;;;;;;0.20;0.20;;;;;;;13.59;63.64;102303.19;5075333;28;20032;-80
2023/06/03 03:40:21;;;;;;;0.10;0.10;;;;;;;13.62;63.56;102306.69;5077484;28;20032;-80
2023/06/03 03:42:49;;;;;;;0.10;0.10;;;;;;;13.57;63.51;102304.97;5077082;28;20033;-80
2023/06/03 03:45:17;;;;;;;0.08;0.08;;;;;;;13.56;63.51;102302.34;5076259;28;20390;-81
2023/06/03 03:47:44;;;;;;;0.10;0.10;;;;;;;13.56;63.16;102303.19;5076759;28;20074;-81
2023/06/03 03:50:38;;;;;;;0.10;0.10;;;;;;;13.58;63.34;102304.09;5075621;28;20033;-77
2023/06/03 03:53:06;;;;;;;0.05;0.05;;;;;;;13.54;63.47;102302.31;5073858;28;20033;-78
2023/06/03 03:55:37;;;;;;;0.10;0.10;;;;;;;13.54;63.53;102305.00;5076016;28;20028;-81
2023/06/03 03:58:06;;;;;;;0.10;0.10;;;;;;;13.54;63.42;102302.31;5074728;28;20032;-80
2023/06/03 04:00:33;;;;;;;0.10;0.10;;;;;;;13.54;63.08;102304.13;5076706;28;20025;-80
2023/06/03 04:02:59;;;;;;;0.10;0.10;;;;;;;13.53;63.56;102308.56;5076450;28;20024;-81
2023/06/03 04:05:25;;;;;;;0.10;0.10;;;;;;;13.52;63.38;102304.13;5075880;28;20039;-81
2023/06/03 04:07:51;;;;;;;0.10;0.10;;;;;;;13.53;63.16;102303.25;5076974;28;20036;-80
2023/06/03 04:10:22;;;;;;;0.10;0.10;;;;;;;13.56;63.43;102315.66;5076924;28;20035;-81
2023/06/03 04:12:48;;;;;;;0.10;0.10;;;;;;;13.54;63.19;102310.31;5077321;28;20025;-80
2023/06/03 04:15:16;;;;;;;0.10;0.10;;;;;;;13.55;62.94;102304.09;5076519;28;20025;-80
2023/06/03 04:17:44;;;;;;;0.00;0.00;;;;;;;13.54;63.57;102312.97;5077218;28;20043;-80
2023/06/03 04:23:20;;;;;;;0.10;0.10;;;;;;;13.59;63.11;102312.94;5115572;27;20121;-81
2023/06/03 04:25:46;;;;;;;0.10;0.10;;;;;;;13.56;63.06;102318.31;5094542;28;20060;-81
2023/06/03 04:28:13;;;;;;;0.10;0.10;;;;;;;13.56;62.46;102313.84;5099890;28;20101;-79
2023/06/03 04:30:39;;;;;;;0.05;0.05;;;;;;;13.56;62.97;102313.84;5108460;28;20034;-77
2023/06/03 04:33:06;;;;;;;0.10;0.10;;;;;;;13.58;62.51;102311.19;5102582;28;20062;-80
2023/06/03 04:35:32;;;;;;;0.20;0.20;;;;;;;13.58;62.58;102314.75;5097412;28;20087;-81
2023/06/03 04:37:59;;;;;;;0.20;0.20;;;;;;;13.61;62.92;102316.50;5090511;28;20040;-81
2023/06/03 04:40:26;;;;;;;0.00;0.00;;;;;;;13.63;62.85;102313.81;5093440;28;20077;-81
2023/06/03 04:42:53;;;;;;;0.10;0.10;;;;;;;13.64;62.68;102313.78;5091834;28;20066;-79
2023/06/03 04:45:23;;;;;;;0.10;0.10;;;;;;;13.66;63.11;102313.78;5089967;28;20140;-81
2023/06/03 04:47:52;;;;;;;0.10;0.10;;;;;;;13.68;62.95;102310.22;5090492;28;20024;-81
2023/06/03 04:50:20;;;;;;;0.10;0.10;;;;;;;13.72;62.50;102308.38;5093898;28;20016;-81
2023/06/03 04:52:47;;;;;;;0.03;0.03;;;;;;;13.73;62.72;102312.81;5093784;28;20476;-82
2023/06/03 04:55:14;;;;;;;0.20;0.20;;;;;;;13.75;62.25;102316.34;5090175;28;20107;-81
2023/06/03 04:57:40;;;;;;;0.10;0.10;;;;;;;13.75;62.11;102319.88;5093363;28;20024;-81
2023/06/03 05:00:09;;;;;;;0.10;0.10;;;;;;;13.80;62.60;102316.31;5091680;28;20051;-81
2023/06/03 05:02:35;;;;;;;0.10;0.10;;;;;;;13.83;62.53;102321.59;5097290;28;20388;-81
2023/06/03 05:05:03;;;;;;;0.00;0.00;;;;;;;13.85;62.23;102319.81;5093199;28;20040;-81
2023/06/03 05:07:29;;;;;;;0.10;0.10;;;;;;;13.84;62.82;102318.03;5096168;28;20016;-81
2023/06/03 05:09:55;;;;;;;0.00;0.00;;;;;;;13.89;62.38;102316.22;5094761;28;20031;-81
2023/06/03 05:12:22;;;;;;;0.03;0.03;;;;;;;13.91;61.95;102330.41;5092632;28;20028;-81
2023/06/03 05:14:48;;;;;;;0.10;0.10;;;;;;;13.95;61.92;102325.94;5088425;28;20029;-82
2023/06/03 05:17:14;;;;;;;0.00;0.00;;;;;;;13.99;61.76;102322.34;5088399;28;20077;-81
2023/06/03 05:19:40;;;;;;;0.15;0.15;;;;;;;14.03;61.67;102327.63;5080716;28;20033;-81
2023/06/03 05:22:06;;;;;;;0.10;0.10;;;;;;;14.08;62.06;102335.53;5088208;28;20036;-81
2023/06/03 05:24:32;;;;;;;0.10;0.10;;;;;;;14.12;62.20;102334.63;5090086;28;20491;-81
2023/06/03 05:26:58;;;;;;;0.10;0.10;;;;;;;14.17;61.90;102342.59;5091747;28;20048;-81
2023/06/03 05:29:24;;;;;;;0.10;0.10;;;;;;;14.22;61.56;102336.28;5088847;28;20063;-81
2023/06/03 05:31:50;;;;;;;0.10;0.10;;;;;;;14.26;61.58;102341.59;5086657;28;20020;-81
2023/06/03 05:34:16;;;;;;;0.05;0.05;;;;;;;14.29;61.46;102342.41;5080582;28;20028;-81
2023/06/03 05:36:42;;;;;;;0.10;0.10;;;;;;;14.34;61.55;102345.03;5075588;28;20036;-81
2023/06/03 05:39:08;;;;;;;0.10;0.10;;;;;;;14.39;61.16;102348.53;5074828;28;20036;-81
2023/06/03 05:41:34;;;;;;;0.00;0.00;;;;;;;14.43;61.32;102347.63;5074812;28;20043;-78
2023/06/03 05:44:00;;;;;;;0.52;0.52;;;;;;;14.47;60.99;102349.34;5075115;28;20043;-79
2023/06/03 05:46:26;;;;;;;0.43;0.43;;;;;;;14.51;60.77;102344.84;5073965;28;20033;-80
2023/06/03 05:48:53;;;;;;;0.08;0.08;;;;;;;14.58;60.71;102349.22;5072715;28;20044;-79
2023/06/03 05:51:19;;;;;;;0.00;0.00;;;;;;;14.66;60.87;102346.47;5074070;28;20028;-81
2023/06/03 05:53:45;;;;;;;0.10;0.10;;;;;;;14.72;60.81;102346.38;5072481;28;20070;-81
2023/06/03 05:56:11;;;;;;;0.00;0.00;;;;;;;14.77;60.57;102349.88;5075335;28;20611;-81
2023/06/03 05:58:38;;;;;;;0.32;0.32;;;;;;;14.83;60.42;102344.44;5068409;28;20126;-81
2023/06/03 06:01:04;;;;;;;1.30;1.20;;;;;;;14.90;60.09;102349.72;5078692;28;20039;-80
2023/06/03 06:03:30;;;;;;;0.10;0.10;;;;;;;14.98;59.96;102351.38;5076431;28;20055;-81
2023/06/03 06:05:58;;;;;;;0.10;0.10;;;;;;;15.01;59.12;102345.09;5073865;28;20106;-81
2023/06/03 06:08:24;;;;;;;0.10;0.10;;;;;;;15.12;59.30;102351.16;5076671;28;20051;-78
2023/06/03 06:10:50;;;;;;;0.08;0.08;;;;;;;15.17;58.95;102349.28;5077539;28;20036;-77
2023/06/03 06:13:16;;;;;;;0.10;0.10;;;;;;;15.26;58.92;102340.25;5071783;28;20029;-81
2023/06/03 06:15:57;;;;;;;0.00;0.00;;;;;;;15.36;58.23;102341.00;5076469;28;20028;-79
2023/06/03 06:18:23;;;;;;;0.10;0.10;;;;;;;15.38;57.64;102344.53;5077563;28;20033;-79
2023/06/03 06:20:49;;;;;;;0.00;0.00;;;;;;;15.47;58.16;102348.84;5077163;28;20033;-79
2023/06/03 06:23:16;;;;;;;0.10;0.10;;;;;;;15.52;57.95;102344.31;5077714;28;20029;-79
2023/06/03 06:25:48;;;;;;;0.08;0.08;;;;;;;15.62;57.82;102342.38;5076635;28;20090;-79
2023/06/03 06:28:19;;;;;;;0.00;0.00;;;;;;;15.69;57.59;102346.69;5070028;28;20029;-79
2023/06/03 06:30:45;;;;;;;0.05;0.05;;;;;;;15.72;57.30;102349.31;5078593;28;20056;-79
2023/06/03 06:33:16;;;;;;;0.10;0.10;;;;;;;15.85;56.25;102353.56;5077141;28;20461;-79
2023/06/03 06:35:43;;;;;;;0.13;0.13;;;;;;;15.89;56.22;102348.16;5072176;28;20044;-80
2023/06/03 06:38:09;;;;;;;0.10;0.10;;;;;;;15.99;55.86;102344.41;5074072;28;20029;-78
2023/06/03 06:40:36;;;;;;;0.00;0.00;;;;;;;16.04;55.10;102347.88;5072471;28;20518;-79
2023/06/03 06:43:03;;;;;;;0.08;0.08;;;;;;;16.14;55.95;102349.47;5069728;28;20032;-79
2023/06/03 06:45:30;;;;;;;0.05;0.05;;;;;;;16.23;55.22;102342.19;5070974;28;20066;-79
2023/06/03 06:48:05;;;;;;;0.10;0.10;;;;;;;16.34;54.96;102340.16;5075540;28;20361;-79
2023/06/03 06:53:26;;;;;;;0.00;0.00;;;;;;;16.50;54.32;102344.28;5082505;28;20415;-78
2023/06/03 06:58:36;;;;;;;0.20;0.20;;;;;;;16.65;53.20;102347.56;5119290;27;20407;-79
2023/06/03 07:01:05;;;;;;;0.10;0.10;;;;;;;16.74;53.35;102339.31;5115051;28;20088;-81
2023/06/03 07:03:32;;;;;;;0.10;0.10;;;;;;;16.82;51.79;102340.03;5124481;28;20016;-80
2023/06/03 07:05:59;;;;;;;0.00;0.00;;;;;;;16.91;50.72;102340.72;5127044;27;20032;-78
2023/06/03 07:08:26;;;;;;;0.20;0.20;;;;;;;17.03;53.19;102336.94;5113717;28;20027;-79
2023/06/03 07:10:57;;;;;;;0.10;0.10;;;;;;;17.12;51.38;102340.28;5111100;28;20384;-76
2023/06/03 07:13:24;;;;;;;0.10;0.10;;;;;;;17.07;50.05;102338.63;5117082;28;20028;-77
2023/06/03 07:15:50;;;;;;;0.08;0.08;;;;;;;17.22;49.75;102345.41;5116255;28;20021;-77
2023/06/03 07:18:18;;;;;;;0.00;0.00;;;;;;;17.34;51.06;102339.75;5104722;28;20028;-78
2023/06/03 07:20:46;;;;;;;0.10;0.10;;;;;;;17.45;49.50;102345.72;5107381;28;20032;-80
2023/06/03 07:23:19;;;;;;;0.10;0.10;;;;;;;17.54;49.29;102341.06;5108057;28;20092;-79
2023/06/03 07:25:47;;;;;;;0.10;0.10;;;;;;;17.63;49.55;102341.72;5113341;28;20075;-76
2023/06/03 07:28:15;;;;;;;0.10;0.10;;;;;;;17.74;49.37;102338.72;5107064;28;20058;-78
2023/06/03 07:30:43;;;;;;;0.00;0.00;;;;;;;17.84;49.63;102344.72;5108969;28;20035;-77
2023/06/03 07:33:22;;;;;;;0.60;0.60;;;;;;;17.94;49.44;102340.94;5105676;28;20025;-77
2023/06/03 07:35:52;;;;;;;0.40;0.40;;;;;;;18.02;48.93;102342.50;5105153;28;20024;-76
2023/06/03 07:41:28;;;;;;;0.10;0.10;;;;;;;18.28;47.78;102344.50;5077287;28;20418;-77
2023/06/03 07:43:58;;;;;;;0.00;0.00;;;;;;;18.40;48.20;102341.41;5070335;28;20078;-77
2023/06/03 07:46:36;;;;;;;0.10;0.10;;;;;;;18.55;47.44;102340.09;5071617;28;20033;-77
2023/06/03 07:49:06;;;;;;;0.30;0.30;;;;;;;18.61;47.82;102340.84;5078946;28;20017;-77
2023/06/03 07:51:33;;;;;;;0.10;0.10;;;;;;;18.72;47.03;102339.59;5079442;28;20048;-76
2023/06/03 07:53:59;;;;;;;0.10;0.10;;;;;;;18.75;45.70;102344.88;5083190;28;20036;-77
2023/06/03 07:56:27;;;;;;;0.10;0.10;;;;;;;18.91;46.34;102344.44;5081267;28;20028;-77
2023/06/03 07:58:54;;;;;;;0.10;0.10;;;;;;;19.02;44.98;102342.28;5080827;28;20029;-77
2023/06/03 08:01:24;;;;;;;0.10;0.10;;;;;;;19.17;46.43;102345.41;5075535;28;20036;-76
2023/06/03 08:03:52;;;;;;;0.00;0.00;;;;;;;19.24;45.24;102344.31;5075952;28;20032;-78
2023/06/03 08:06:20;;;;;;;0.13;0.13;;;;;;;19.35;45.46;102346.63;5081993;28;20066;-78
2023/06/03 08:08:46;;;;;;;0.00;0.00;;;;;;;19.47;45.14;102342.66;5086100;28;20436;-77
2023/06/03 08:11:13;;;;;;;0.10;0.10;;;;;;;19.61;44.00;102339.50;5071572;28;20044;-76
2023/06/03 08:13:39;;;;;;;0.00;0.00;;;;;;;19.69;43.13;102349.06;5075613;28;20072;-80
2023/06/03 08:16:06;;;;;;;0.10;0.10;;;;;;;19.81;43.77;102349.56;5083498;28;20048;-80
2023/06/03 08:18:52;;;;;;;0.77;0.77;;;;;;;19.95;41.77;102347.31;5087746;28;20389;-81
2023/06/03 08:21:18;;;;;;;1.17;0.52;;;;;;;20.03;43.56;102347.88;5077539;28;20096;-80
2023/06/03 08:23:44;;;;;;;0.00;0.00;;;;;;;20.15;41.56;102345.69;5082076;28;20036;-78
2023/06/03 08:26:11;;;;;;;0.00;0.00;;;;;;;20.21;41.79;102345.44;5086789;28;20036;-77
2023/06/03 08:28:39;;;;;;;0.10;0.10;;;;;;;20.34;42.00;102341.38;5081618;28;20032;-79
2023/06/03 08:31:05;;;;;;;0.10;0.10;;;;;;;20.46;42.01;102339.16;5078251;28;20096;-77
2023/06/03 08:33:35;;;;;;;2.38;1.85;;;;;;;20.57;41.55;102331.53;5081888;28;20033;-77
2023/06/03 08:36:01;;;;;;;0.22;0.22;;;;;;;20.71;41.02;102333.75;5075771;28;20027;-77
2023/06/03 08:38:27;;;;;;;0.77;0.77;;;;;;;20.85;41.41;102325.13;5075393;28;20033;-77
2023/06/03 08:40:54;;;;;;;0.10;0.10;;;;;;;20.94;38.68;102327.44;5074652;28;20051;-77
2023/06/03 08:43:22;;;;;;;0.10;0.10;;;;;;;21.09;40.37;102327.78;5087143;28;20048;-77
2023/06/03 08:46:01;;;;;;;0.00;0.00;;;;;;;21.23;40.08;102317.28;5077865;28;20058;-77
2023/06/03 08:48:55;;;;;;;0.15;0.15;;;;;;;21.37;38.06;102315.84;5078697;28;20044;-75
2023/06/03 08:51:23;;;;;;;0.10;0.10;;;;;;;21.36;37.28;102314.97;5071782;28;20060;-76
2023/06/03 08:53:51;;;;;;;0.10;0.10;;;;;;;21.50;39.29;102311.69;5068919;28;20021;-78
2023/06/03 08:56:19;;;;;;;0.10;0.10;;;;;;;21.61;38.32;102308.56;5069113;28;20029;-77
2023/06/03 08:58:52;;;;;;;0.10;0.10;;;;;;;21.71;36.11;102315.31;5071316;28;20033;-77
2023/06/03 09:01:26;;;;;;;0.10;0.10;;;;;;;21.76;34.96;102312.41;5063950;28;20025;-78
2023/06/03 09:03:53;;;;;;;0.00;0.00;;;;;;;21.86;37.24;102316.44;5056451;28;20036;-76
2023/06/03 09:06:20;;;;;;;0.10;0.10;;;;;;;21.93;38.12;102314.34;5065932;28;20013;-77
2023/06/03 09:08:51;;;;;;;0.25;0.25;;;;;;;22.06;37.40;102314.69;5061920;28;20085;-78
2023/06/03 09:11:17;;;;;;;0.10;0.10;;;;;;;22.14;37.17;102309.78;5067476;28;20234;-79
2023/06/03 09:13:46;;;;;;;0.73;0.73;;;;;;;22.19;35.68;102299.66;5069107;28;20031;-78
2023/06/03 09:16:13;;;;;;;0.10;0.10;;;;;;;22.27;35.82;102305.59;5061936;28;20040;-78
2023/06/03 09:18:40;;;;;;;0.15;0.15;;;;;;;22.35;35.99;102304.38;5065018;28;20029;-79
2023/06/03 09:21:10;;;;;;;0.20;0.20;;;;;;;22.45;35.40;102305.72;5069918;28;20025;-78
2023/06/03 09:23:39;;;;;;;0.08;0.08;;;;;;;22.54;36.07;102305.28;5069867;28;20036;-79
2023/06/03 09:26:06;;;;;;;0.75;0.75;;;;;;;22.67;35.65;102304.69;5071012;28;20032;-78
2023/06/03 09:28:35;;;;;;;0.20;0.20;;;;;;;22.73;35.37;102304.38;5067082;28;20026;-77
2023/06/03 09:31:02;;;;;;;10.23;0.90;;;;;;;22.82;34.45;102313.88;5063477;28;20035;-81
2023/06/03 09:33:28;;;;;;;0.15;0.15;;;;;;;22.87;35.07;102307.31;5065782;28;20048;-76
2023/06/03 09:36:15;;;;;;;0.10;0.10;;;;;;;22.91;33.00;102303.50;5069026;28;20009;-77
2023/06/03 09:38:56;;;;;;;0.10;0.10;;;;;;;22.93;32.11;102304.31;5071100;28;20029;-79
2023/06/03 09:41:27;;;;;;;0.28;0.28;;;;;;;22.98;34.39;102303.19;5064698;28;20041;-79
2023/06/03 09:43:59;;;;;;;0.10;0.10;;;;;;;23.07;33.49;102302.75;5073236;28;20021;-80
2023/06/03 09:46:28;;;;;;;0.10;0.10;;;;;;;23.11;34.07;102301.63;5064517;28;20009;-78
2023/06/03 09:48:54;;;;;;;0.25;0.25;;;;;;;23.11;31.51;102304.34;5072723;28;20083;-77
2023/06/03 09:51:20;;;;;;;0.10;0.10;;;;;;;23.21;33.34;102294.84;5072431;28;20020;-78
2023/06/03 09:53:46;;;;;;;0.10;0.10;;;;;;;23.23;33.55;102297.47;5072291;28;20021;-77
2023/06/03 09:56:27;;;;;;;0.43;0.43;;;;;;;23.31;33.70;102305.19;5072301;28;20028;-79
2023/06/03 10:01:50;;;;;;;0.10;0.10;;;;;;;23.40;33.17;102305.63;5112498;27;1367904;-77
2023/06/03 10:04:20;;;;;;;0.15;0.15;;;;;;;23.44;32.46;102300.91;5138503;27;20061;-78
2023/06/03 10:06:48;;;;;;;0.00;0.00;;;;;;;23.49;31.32;102298.84;5145942;28;20028;-79
2023/06/03 10:09:25;;;;;;;0.10;0.10;;;;;;;23.62;31.21;102306.34;5130003;27;20019;-78
2023/06/03 10:11:52;;;;;;;0.10;0.10;;;;;;;23.67;32.06;102301.56;5136714;28;20028;-78
2023/06/03 10:14:25;;;;;;;0.10;0.10;;;;;;;23.71;31.39;102298.63;5137709;27;20031;-77
2023/06/03 10:17:10;;;;;;;0.10;0.10;;;;;;;23.74;29.55;102303.00;5141056;28;20030;-78
2023/06/03 10:19:38;;;;;;;0.10;0.10;;;;;;;23.75;31.35;102299.28;5143531;27;20073;-79
2023/06/03 10:22:06;;;;;;;0.10;0.10;;;;;;;23.81;32.00;102303.53;5128634;28;20043;-78
2023/06/03 10:24:38;;;;;;;0.30;0.30;;;;;;;23.96;32.12;102300.03;5133991;28;20031;-78
2023/06/03 10:27:04;;;;;;;;;;;;;;;24.15;32.23;102305.34;5138904;27;20038;-78
2023/06/03 10:29:32;;;;;;;0.10;0.10;;;;;;;24.09;32.03;102297.53;5124628;28;19895;-78
2023/06/03 10:32:00;;;;;;;0.10;0.10;;;;;;;24.07;31.52;102288.63;5122719;27;20096;-80
2023/06/03 10:34:29;;;;;;;0.10;0.10;;;;;;;24.16;31.73;102293.56;5128177;28;20020;-78
2023/06/03 10:36:57;;;;;;;0.10;0.10;;;;;;;24.19;32.14;102293.38;5128128;28;20027;-78
2023/06/03 10:39:25;;;;;;;0.10;0.10;;;;;;;24.23;32.10;102289.53;5127718;28;20028;-78
2023/06/03 10:41:56;;;;;;;0.25;0.25;;;;;;;24.26;30.38;102298.44;5127361;28;20034;-78
2023/06/03 10:44:22;;;;;;;0.10;0.10;;;;;;;24.29;31.34;102300.97;5125246;28;20109;-78
2023/06/03 10:47:15;;;;;;;0.10;0.10;;;;;;;24.40;31.02;102295.84;5123387;28;20028;-78
2023/06/03 10:50:04;;;;;;;0.30;0.30;;;;;;;24.42;29.82;102296.63;5128594;28;20050;-77
2023/06/03 10:53:10;;;;;;;0.10;0.10;;;;;;;24.62;30.80;102294.63;5127821;28;20020;-80
2023/06/03 10:55:54;;;;;;;0.10;0.10;;;;;;;24.58;28.50;102291.22;5128084;28;20031;-80
2023/06/03 10:58:25;;;;;;;0.10;0.10;;;;;;;24.70;28.76;102295.13;5131027;28;20083;-77
2023/06/03 11:01:06;;;;;;;0.10;0.10;;;;;;;24.77;28.87;102293.78;5139875;27;20049;-78
2023/06/03 11:03:53;;;;;;;1.38;1.27;;;;;;;24.79;29.34;102289.16;5140942;28;20126;-78
2023/06/03 11:09:03;;;;;;;0.28;0.28;;;;;;;24.91;28.57;102289.41;5108895;27;20393;-79
2023/06/03 11:19:58;;;;;;;0.10;0.10;;;;;;;25.02;28.01;102287.84;5107948;27;20352;-80
2023/06/03 11:25:24;;;;;;;0.10;0.10;;;;;;;25.12;28.80;102285.47;5088418;28;20385;-78
2023/06/03 11:27:51;;;;;;;0.15;0.15;;;;;;;25.20;28.89;102287.72;5085807;28;20037;-79
2023/06/03 11:30:17;;;;;;;0.05;0.05;;;;;;;25.27;28.43;102288.22;5087858;28;20040;-80
2023/06/03 11:32:43;;;;;;;0.10;0.10;;;;;;;25.31;28.31;102287.06;5088419;28;20019;-80
2023/06/03 11:40:24;;;;;;;0.10;0.10;;;;;;;25.43;28.10;102283.63;5120050;27;20392;-77
2023/06/03 11:45:28;;;;;;;0.10;0.10;;;;;;;25.52;28.94;102285.81;5133093;27;20423;-77
2023/06/03 11:48:07;;;;;;;0.80;0.80;;;;;;;25.60;27.71;102282.63;5109615;28;20028;-77
2023/06/03 11:50:53;;;;;;;0.10;0.10;;;;;;;25.70;27.75;102287.50;5107797;28;20016;-79
2023/06/03 11:53:36;;;;;;;0.10;0.10;;;;;;;25.74;29.35;102279.06;5108939;28;20031;-79
2023/06/03 11:56:04;;;;;;;0.10;0.10;;;;;;;25.70;28.29;102272.06;5103495;28;20047;-79
2023/06/03 11:58:30;;;;;;;0.25;0.25;;;;;;;25.87;29.31;102278.28;5107725;28;20067;-77
2023/06/03 12:01:16;;;;;;;0.10;0.10;;;;;;;26.02;28.32;102276.47;5107071;28;20028;-76
2023/06/03 12:04:02;;;;;;;0.10;0.10;;;;;;;25.98;27.87;102270.34;5108082;28;20153;-80
2023/06/03 12:06:43;;;;;;;0.10;0.10;;;;;;;26.11;29.06;102271.34;5120163;28;20032;-79
2023/06/03 12:09:09;;;;;;;0.03;0.03;;;;;;;26.15;28.12;102267.47;5127712;28;20064;-79
2023/06/03 12:11:37;;;;;;;0.10;0.10;;;;;;;26.18;28.49;102270.97;5112513;28;20279;-79